createdAt,value
2023-05-20T00:01:46.420Z,101569.59
2023-05-20T00:04:31.838Z,101565.25
2023-05-20T00:07:17.193Z,101567.91
2023-05-20T00:10:02.641Z,101567.13
2023-05-20T00:12:48.040Z,101569.53
2023-05-20T00:15:34.498Z,101570.41
2023-05-20T00:18:20.257Z,101564.38
2023-05-20T00:21:05.717Z,101566.31
2023-05-20T00:23:51.645Z,101561.72
2023-05-20T00:26:36.667Z,101566.06
2023-05-20T00:29:22.231Z,101568.81
2023-05-20T00:32:07.630Z,101576.41
2023-05-20T00:34:57.067Z,101574.47
2023-05-20T00:37:42.589Z,101580.41
2023-05-20T00:40:27.934Z,101577.06
2023-05-20T00:43:13.297Z,101577.16
2023-05-20T00:45:58.851Z,101575.97
2023-05-20T00:48:44.592Z,101573.44
2023-05-20T00:51:29.711Z,101579.44
2023-05-20T00:54:15.041Z,101582.78
2023-05-20T00:57:00.279Z,101587.78
2023-05-20T00:59:45.846Z,101587.03
2023-05-20T01:02:31.092Z,101591.00
2023-05-20T01:05:16.443Z,101588.41
2023-05-20T01:08:01.774Z,101586.69
2023-05-20T01:10:51.427Z,101590.16
2023-05-20T01:13:46.708Z,101588.91
2023-05-20T01:16:32.786Z,101595.59
2023-05-20T01:19:31.165Z,101599.13
2023-05-20T01:22:16.607Z,101599.00
2023-05-20T01:25:01.992Z,101583.41
2023-05-20T01:27:48.292Z,101592.81
2023-05-20T01:30:38.775Z,101596.41
2023-05-20T01:33:25.326Z,101595.28
2023-05-20T01:36:11.287Z,101603.06
2023-05-20T01:38:58.327Z,101604.66
2023-05-20T01:41:45.092Z,101592.63
2023-05-20T01:44:30.900Z,101597.00
2023-05-20T01:47:16.156Z,101583.03
2023-05-20T01:50:01.402Z,101597.72
2023-05-20T01:52:46.933Z,101588.91
2023-05-20T01:55:32.466Z,101587.38
2023-05-20T01:58:17.869Z,101594.09
2023-05-20T02:01:03.209Z,101584.31
2023-05-20T02:03:48.497Z,101587.75
2023-05-20T02:06:33.393Z,101593.16
2023-05-20T02:09:18.862Z,101594.63
2023-05-20T02:12:04.030Z,101598.00
2023-05-20T02:14:49.202Z,101596.56
2023-05-20T02:17:34.700Z,101593.09
2023-05-20T02:20:20.125Z,101597.59
2023-05-20T02:23:05.314Z,101602.94
2023-05-20T02:25:50.629Z,101590.66
2023-05-20T02:28:35.953Z,101594.88
2023-05-20T02:31:21.450Z,101589.94
2023-05-20T02:34:06.844Z,101582.81
2023-05-20T02:36:52.231Z,101584.34
2023-05-20T02:39:37.413Z,101586.81
2023-05-20T02:42:22.478Z,101587.09
2023-05-20T02:45:08.263Z,101579.97
2023-05-20T02:47:53.603Z,101585.94
2023-05-20T02:50:39.322Z,101583.84
2023-05-20T02:53:24.595Z,101581.25
2023-05-20T02:56:09.920Z,101583.34
2023-05-20T02:58:55.398Z,101584.88
2023-05-20T03:01:40.752Z,101579.59
2023-05-20T03:04:26.746Z,101578.88
2023-05-20T03:07:11.948Z,101571.56
2023-05-20T03:09:57.733Z,101584.69
2023-05-20T03:12:42.888Z,101581.00
2023-05-20T03:15:28.325Z,101585.84
2023-05-20T03:18:13.900Z,101580.56
2023-05-20T03:20:59.162Z,101599.41
2023-05-20T03:23:44.497Z,101603.66
2023-05-20T03:26:29.930Z,101606.81
2023-05-20T03:29:16.336Z,101603.03
2023-05-20T03:32:02.317Z,101613.47
2023-05-20T03:34:47.385Z,101614.25
2023-05-20T03:37:32.821Z,101609.59
2023-05-20T03:40:18.264Z,101626.69
2023-05-20T03:43:03.523Z,101623.09
2023-05-20T03:45:48.987Z,101622.00
2023-05-20T03:48:34.303Z,101623.84
2023-05-20T03:51:19.617Z,101620.56
2023-05-20T03:54:04.976Z,101617.09
2023-05-20T03:56:50.465Z,101615.84
2023-05-20T03:59:35.604Z,101603.44
2023-05-20T04:02:21.115Z,101604.34
2023-05-20T04:05:06.976Z,101604.47
2023-05-20T04:07:52.060Z,101603.59
2023-05-20T04:10:37.466Z,101603.56
2023-05-20T04:13:22.941Z,101605.22
2023-05-20T04:16:08.368Z,101609.63
2023-05-20T04:18:53.586Z,101604.38
2023-05-20T04:21:39.068Z,101607.81
2023-05-20T04:24:25.500Z,101605.56
2023-05-20T04:27:10.703Z,101603.16
2023-05-20T04:29:55.537Z,101597.09
2023-05-20T04:32:40.498Z,101598.97
2023-05-20T04:35:25.852Z,101597.19
2023-05-20T04:38:11.094Z,101599.72
2023-05-20T04:40:56.494Z,101601.50
2023-05-20T04:43:41.608Z,101593.00
2023-05-20T04:46:27.044Z,101596.59
2023-05-20T04:49:11.970Z,101592.50
2023-05-20T04:51:56.927Z,101593.19
2023-05-20T04:54:42.216Z,101588.19
2023-05-20T04:57:27.722Z,101598.53
2023-05-20T05:00:13.612Z,101588.31
2023-05-20T05:02:58.839Z,101588.97
2023-05-20T05:05:44.456Z,101579.72
2023-05-20T05:08:29.575Z,101580.66
2023-05-20T05:11:14.987Z,101577.50
2023-05-20T05:14:00.461Z,101573.06
2023-05-20T05:16:46.104Z,101575.91
2023-05-20T05:19:31.135Z,101570.50
2023-05-20T05:22:16.456Z,101574.13
2023-05-20T05:25:02.073Z,101576.81
2023-05-20T05:27:47.175Z,101581.56
2023-05-20T05:30:32.626Z,101584.47
2023-05-20T05:33:18.081Z,101576.06
2023-05-20T05:36:03.781Z,101563.19
2023-05-20T05:38:48.884Z,101571.75
2023-05-20T05:41:34.430Z,101569.91
2023-05-20T05:44:19.842Z,101573.09
2023-05-20T05:47:05.074Z,101576.75
2023-05-20T05:49:50.211Z,101579.16
2023-05-20T05:52:36.165Z,101574.81
2023-05-20T05:55:21.470Z,101581.88
2023-05-20T05:58:07.050Z,101577.41
2023-05-20T06:00:52.501Z,101589.34
2023-05-20T06:03:37.854Z,101575.03
2023-05-20T06:06:23.184Z,101582.91
2023-05-20T06:09:08.880Z,101585.78
2023-05-20T06:11:54.130Z,101583.34
2023-05-20T06:14:41.625Z,101579.22
2023-05-20T06:17:26.832Z,101580.03
2023-05-20T06:20:12.602Z,101571.38
2023-05-20T06:22:57.873Z,101572.19
2023-05-20T06:25:43.339Z,101580.84
2023-05-20T06:28:29.773Z,101570.88
2023-05-20T06:31:15.145Z,101563.41
2023-05-20T06:34:02.047Z,101568.00
2023-05-20T06:36:48.433Z,101561.22
2023-05-20T06:39:33.764Z,101562.00
2023-05-20T06:42:22.142Z,101556.94
2023-05-20T06:45:08.069Z,101569.41
2023-05-20T06:47:53.453Z,101545.28
2023-05-20T06:50:38.733Z,101552.56
2023-05-20T06:53:24.021Z,101540.31
2023-05-20T06:56:08.864Z,101547.38
2023-05-20T06:58:55.400Z,101547.50
2023-05-20T07:01:40.560Z,101535.59
2023-05-20T07:04:25.806Z,101544.34
2023-05-20T07:07:11.391Z,101536.28
2023-05-20T07:09:57.590Z,101539.34
2023-05-20T07:12:45.903Z,101531.84
2023-05-20T07:15:31.116Z,101524.88
2023-05-20T07:18:18.337Z,101522.53
2023-05-20T07:21:03.422Z,101516.50
2023-05-20T07:23:48.532Z,101515.13
2023-05-20T07:26:33.870Z,101514.47
2023-05-20T07:29:19.195Z,101517.88
2023-05-20T07:32:06.327Z,101509.31
2023-05-20T07:34:51.277Z,101504.38
2023-05-20T07:37:36.601Z,101514.09
2023-05-20T07:40:22.410Z,101499.56
2023-05-20T07:43:08.477Z,101495.50
2023-05-20T07:45:53.546Z,101481.66
2023-05-20T07:48:38.834Z,101472.97
2023-05-20T07:51:24.583Z,101469.69
2023-05-20T07:54:10.003Z,101468.13
2023-05-20T07:56:55.416Z,101463.13
2023-05-20T07:59:40.847Z,101439.00
2023-05-20T08:02:26.399Z,101437.31
2023-05-20T08:05:11.945Z,101440.69
2023-05-20T08:07:56.911Z,101442.75
2023-05-20T08:10:42.479Z,101433.25
2023-05-20T08:13:28.049Z,101434.41
2023-05-20T08:16:13.325Z,101432.63
2023-05-20T08:18:58.559Z,101437.06
2023-05-20T08:21:43.710Z,101415.25
2023-05-20T08:24:28.736Z,101418.72
2023-05-20T08:27:14.077Z,101411.81
2023-05-20T08:30:01.026Z,101408.50
2023-05-20T08:32:46.581Z,101409.41
2023-05-20T08:35:32.081Z,101394.69
2023-05-20T08:38:17.371Z,101383.47
2023-05-20T08:41:04.334Z,101382.56
2023-05-20T08:43:51.921Z,101372.13
2023-05-20T08:46:38.208Z,101367.81
2023-05-20T08:49:23.477Z,101366.09
2023-05-20T08:52:11.339Z,101364.38
2023-05-20T08:54:57.908Z,101349.66
2023-05-20T08:57:43.136Z,101360.97
2023-05-20T09:00:28.569Z,101334.84
2023-05-20T09:03:14.110Z,101336.53
2023-05-20T09:06:08.071Z,101316.47
2023-05-20T09:08:53.157Z,101317.41
2023-05-20T09:11:40.270Z,101345.28
2023-05-20T09:14:25.552Z,101336.56
2023-05-20T09:17:10.946Z,101340.03
2023-05-20T09:19:56.754Z,101333.06
2023-05-20T09:22:42.111Z,101340.91
2023-05-20T09:25:27.760Z,101339.97
2023-05-20T09:28:12.840Z,101326.78
2023-05-20T09:30:59.211Z,101311.22
2023-05-20T09:33:44.647Z,101326.78
2023-05-20T09:40:13.426Z,101283.44
2023-05-20T09:43:01.784Z,101265.72
2023-05-20T09:45:47.689Z,101295.34
2023-05-20T09:48:35.297Z,101272.19
2023-05-20T09:51:23.459Z,101265.06
2023-05-20T09:54:09.312Z,101268.44
2023-05-20T09:56:54.960Z,101274.13
2023-05-20T09:59:40.989Z,101274.25
2023-05-20T10:02:26.947Z,101290.72
2023-05-20T10:05:17.374Z,101291.44
2023-05-20T10:08:31.631Z,101280.38
2023-05-20T10:11:28.103Z,101292.56
2023-05-20T10:14:16.626Z,101286.44
2023-05-20T10:20:04.568Z,101287.09
2023-05-20T10:22:57.888Z,101274.88
2023-05-20T10:25:53.664Z,101269.09
2023-05-20T10:28:41.137Z,101276.19
2023-05-20T10:31:26.203Z,101273.56
2023-05-20T10:34:24.129Z,101296.97
2023-05-20T10:37:08.984Z,101282.19
2023-05-20T10:40:10.094Z,101269.03
2023-05-20T10:42:55.546Z,101266.88
2023-05-20T10:45:52.560Z,101243.47
2023-05-20T10:48:42.066Z,101273.97
2023-05-20T10:51:28.955Z,101259.25
2023-05-20T10:54:14.872Z,101269.75
2023-05-20T10:57:00.374Z,101269.38
2023-05-20T10:59:45.544Z,101260.75
2023-05-20T11:02:30.985Z,101242.44
2023-05-20T11:05:17.322Z,101245.97
2023-05-20T11:08:07.928Z,101253.13
2023-05-20T11:10:56.971Z,101247.88
2023-05-20T11:13:42.078Z,101255.97
2023-05-20T11:16:27.457Z,101255.28
2023-05-20T11:19:16.346Z,101251.75
2023-05-20T11:22:01.615Z,101243.00
2023-05-20T11:24:47.238Z,101257.97
2023-05-20T11:27:32.283Z,101278.03
2023-05-20T11:30:18.260Z,101282.44
2023-05-20T11:33:04.492Z,101285.91
2023-05-20T11:35:52.266Z,101292.06
2023-05-20T11:38:37.266Z,101291.16
2023-05-20T11:41:29.316Z,101294.66
2023-05-20T11:44:14.684Z,101301.63
2023-05-20T11:47:02.189Z,101296.41
2023-05-20T11:49:48.894Z,101295.47
2023-05-20T11:52:34.392Z,101287.59
2023-05-20T11:55:19.716Z,101285.97
2023-05-20T11:58:04.554Z,101298.88
2023-05-20T12:00:55.026Z,101276.13
2023-05-20T12:03:42.429Z,101258.91
2023-05-20T12:06:27.693Z,101292.84
2023-05-20T12:09:13.286Z,101279.66
2023-05-20T12:11:58.736Z,101267.41
2023-05-20T12:14:44.328Z,101239.59
2023-05-20T12:17:29.632Z,101242.16
2023-05-20T12:20:17.083Z,101260.44
2023-05-20T12:23:02.410Z,101234.41
2023-05-20T12:25:48.005Z,101264.00
2023-05-20T12:28:33.195Z,101246.44
2023-05-20T12:31:18.542Z,101243.78
2023-05-20T12:34:03.510Z,101228.09
2023-05-20T12:36:49.020Z,101230.59
2023-05-20T12:39:34.468Z,101216.00
2023-05-20T12:42:19.798Z,101226.41
2023-05-20T12:45:06.163Z,101218.38
2023-05-20T12:47:51.505Z,101220.25
2023-05-20T12:50:36.988Z,101207.00
2023-05-20T12:53:23.011Z,101195.69
2023-05-20T12:56:08.522Z,101199.16
2023-05-20T12:58:53.781Z,101219.28
2023-05-20T13:01:39.348Z,101220.41
2023-05-20T13:04:24.411Z,101235.13
2023-05-20T13:07:09.830Z,101241.97
2023-05-20T13:09:55.355Z,101233.25
2023-05-20T13:12:40.763Z,101228.06
2023-05-20T13:15:25.959Z,101218.56
2023-05-20T13:18:11.689Z,101212.44
2023-05-20T13:20:56.937Z,101227.22
2023-05-20T13:23:42.504Z,101201.78
2023-05-20T13:26:27.569Z,101195.31
2023-05-20T13:29:13.300Z,101184.22
2023-05-20T13:32:00.959Z,101176.22
2023-05-20T13:34:47.134Z,101173.34
2023-05-20T13:37:32.566Z,101153.41
2023-05-20T13:40:17.902Z,101155.78
2023-05-20T13:43:03.262Z,101152.47
2023-05-20T13:45:48.725Z,101127.16
2023-05-20T13:48:33.992Z,101124.25
2023-05-20T13:51:19.765Z,101142.75
2023-05-20T13:54:05.063Z,101125.31
2023-05-20T13:56:50.550Z,101122.97
2023-05-20T13:59:36.010Z,101142.16
2023-05-20T14:02:21.424Z,101149.19
2023-05-20T14:05:08.834Z,101157.91
2023-05-20T14:07:54.281Z,101157.03
2023-05-20T14:10:40.224Z,101143.34
2023-05-20T14:13:25.832Z,101163.28
2023-05-20T14:16:11.640Z,101153.72
2023-05-20T14:18:57.838Z,101170.31
2023-05-20T14:21:43.819Z,101141.47
2023-05-20T14:24:29.266Z,101147.72
2023-05-20T14:27:14.850Z,101141.69
2023-05-20T14:30:01.870Z,101157.56
2023-05-20T14:32:47.558Z,101161.03
2023-05-20T14:35:32.984Z,101160.03
2023-05-20T14:38:18.345Z,101164.31
2023-05-20T14:41:03.778Z,101156.41
2023-05-20T14:43:49.240Z,101166.03
2023-05-20T14:46:34.226Z,101154.88
2023-05-20T14:49:19.701Z,101168.88
2023-05-20T14:52:05.957Z,101171.53
2023-05-20T14:54:50.865Z,101161.09
2023-05-20T14:57:36.487Z,101176.81
2023-05-20T15:00:21.735Z,101176.78
2023-05-20T15:03:07.702Z,101188.13
2023-05-20T15:05:52.800Z,101183.00
2023-05-20T15:08:38.705Z,101182.13
2023-05-20T15:11:24.259Z,101182.97
2023-05-20T15:14:09.624Z,101188.31
2023-05-20T15:16:55.177Z,101183.97
2023-05-20T15:19:41.426Z,101193.53
2023-05-20T15:22:27.152Z,101193.50
2023-05-20T15:25:12.497Z,101188.28
2023-05-20T15:27:57.767Z,101184.84
2023-05-20T15:30:43.319Z,101183.94
2023-05-20T15:33:28.725Z,101183.97
2023-05-20T15:36:14.100Z,101190.94
2023-05-20T15:38:58.994Z,101191.91
2023-05-20T15:41:44.742Z,101204.09
2023-05-20T15:44:29.975Z,101203.22
2023-05-20T15:47:15.037Z,101187.59
2023-05-20T15:50:00.253Z,101205.88
2023-05-20T15:52:45.466Z,101203.25
2023-05-20T15:55:31.003Z,101209.31
2023-05-20T15:58:16.451Z,101198.03
2023-05-20T16:01:01.408Z,101209.34
2023-05-20T16:03:46.860Z,101202.41
2023-05-20T16:06:33.956Z,101221.59
2023-05-20T16:09:19.104Z,101222.47
2023-05-20T16:12:05.925Z,101211.13
2023-05-20T16:14:50.901Z,101203.28
2023-05-20T16:17:36.986Z,101205.88
2023-05-20T16:20:22.182Z,101211.97
2023-05-20T16:23:07.433Z,101212.00
2023-05-20T16:25:52.730Z,101213.75
2023-05-20T16:28:40.993Z,101218.09
2023-05-20T16:31:26.152Z,101211.13
2023-05-20T16:34:11.621Z,101207.66
2023-05-20T16:36:57.174Z,101215.44
2023-05-20T16:39:42.745Z,101207.63
2023-05-20T16:42:28.034Z,101212.84
2023-05-20T16:45:13.644Z,101210.22
2023-05-20T16:47:58.637Z,101214.59
2023-05-20T16:50:43.989Z,101196.28
2023-05-20T16:53:29.407Z,101189.31
2023-05-20T16:56:15.073Z,101195.47
2023-05-20T16:59:00.246Z,101195.44
2023-05-20T17:01:45.902Z,101202.41
2023-05-20T17:04:31.318Z,101205.03
2023-05-20T17:07:16.706Z,101200.69
2023-05-20T17:10:02.073Z,101213.72
2023-05-20T17:12:47.438Z,101211.97
2023-05-20T17:15:32.743Z,101218.97
2023-05-20T17:18:18.202Z,101218.09
2023-05-20T17:21:03.567Z,101213.72
2023-05-20T17:23:49.006Z,101211.13
2023-05-20T17:26:34.490Z,101221.56
2023-05-20T17:29:19.680Z,101226.78
2023-05-20T17:32:05.091Z,101220.69
2023-05-20T17:34:50.476Z,101231.97
2023-05-20T17:37:35.993Z,101222.38
2023-05-20T17:40:21.526Z,101230.25
2023-05-20T17:43:07.050Z,101234.59
2023-05-20T17:45:52.573Z,101225.03
2023-05-20T17:48:38.020Z,101227.63
2023-05-20T17:51:23.206Z,101239.81
2023-05-20T17:54:08.580Z,101229.38
2023-05-20T17:56:54.079Z,101233.72
2023-05-20T17:59:39.607Z,101243.28
2023-05-20T18:02:24.996Z,101242.41
2023-05-20T18:05:10.731Z,101245.06
2023-05-20T18:07:56.332Z,101243.28
2023-05-20T18:10:41.561Z,101236.34
2023-05-20T18:13:27.041Z,101232.84
2023-05-20T18:16:12.711Z,101245.91
2023-05-20T18:18:58.048Z,101251.97
2023-05-20T18:21:43.518Z,101244.13
2023-05-20T18:24:28.646Z,101247.63
2023-05-20T18:27:14.135Z,101251.09
2023-05-20T18:29:59.475Z,101242.38
2023-05-20T18:32:45.049Z,101247.59
2023-05-20T18:35:30.422Z,101249.38
2023-05-20T18:38:15.925Z,101249.38
2023-05-20T18:41:01.230Z,101245.00
2023-05-20T18:43:46.631Z,101242.41
2023-05-20T18:46:32.014Z,101240.66
2023-05-20T18:49:17.405Z,101239.78
2023-05-20T18:52:04.081Z,101240.66
2023-05-20T18:54:49.217Z,101242.41
2023-05-20T18:57:37.818Z,101235.47
2023-05-20T19:00:23.085Z,101250.25
2023-05-20T19:03:08.534Z,101247.59
2023-05-20T19:05:53.656Z,101247.63
2023-05-20T19:08:39.918Z,101252.84
2023-05-20T19:11:25.022Z,101256.34
2023-05-20T19:14:10.573Z,101248.50
2023-05-20T19:16:55.899Z,101251.13
2023-05-20T19:19:41.442Z,101250.22
2023-05-20T19:22:26.821Z,101257.22
2023-05-20T19:25:12.125Z,101257.19
2023-05-20T19:27:57.258Z,101252.81
2023-05-20T19:30:42.718Z,101254.53
2023-05-20T19:33:28.121Z,101268.47
2023-05-20T19:36:13.119Z,101259.78
2023-05-20T19:38:58.643Z,101265.94
2023-05-20T19:41:43.928Z,101256.34
2023-05-20T19:44:29.306Z,101261.56
2023-05-20T19:47:14.535Z,101254.59
2023-05-20T19:49:59.781Z,101249.38
2023-05-20T19:52:45.060Z,101251.09
2023-05-20T19:55:30.600Z,101258.06
2023-05-20T19:58:16.006Z,101250.25
2023-05-20T20:01:01.298Z,101244.13
2023-05-20T20:03:46.728Z,101246.69
2023-05-20T20:06:32.010Z,101240.56
2023-05-20T20:09:18.355Z,101240.53
2023-05-20T20:12:05.182Z,101245.75
2023-05-20T20:14:51.271Z,101253.53
2023-05-20T20:17:36.564Z,101254.31
2023-05-20T20:20:21.956Z,101253.53
2023-05-20T20:23:08.288Z,101252.66
2023-05-20T20:25:53.371Z,101245.69
2023-05-20T20:28:38.866Z,101242.22
2023-05-20T20:31:23.939Z,101240.47
2023-05-20T20:34:09.416Z,101241.38
2023-05-20T20:36:55.065Z,101232.63
2023-05-20T20:39:40.858Z,101244.63
2023-05-20T20:42:25.949Z,101244.53
2023-05-20T20:45:11.579Z,101250.53
2023-05-20T20:47:56.918Z,101262.69
2023-05-20T20:50:46.261Z,101268.81
2023-05-20T20:53:31.519Z,101253.25
2023-05-20T20:56:16.948Z,101242.78
2023-05-20T20:59:05.982Z,101262.69
2023-05-20T21:01:51.059Z,101253.19
2023-05-20T21:04:36.562Z,101244.53
2023-05-20T21:07:21.868Z,101235.91
2023-05-20T21:10:09.141Z,101237.56
2023-05-20T21:12:55.023Z,101241.06
2023-05-20T21:15:40.459Z,101236.69
2023-05-20T21:18:25.839Z,101243.56
2023-05-20T21:21:11.192Z,101247.03
2023-05-20T21:23:56.882Z,101226.19
2023-05-20T21:26:42.158Z,101228.81
2023-05-20T21:29:27.485Z,101220.94
2023-05-20T21:32:12.904Z,101216.56
2023-05-20T21:34:58.428Z,101213.94
2023-05-20T21:37:43.588Z,101215.72
2023-05-20T21:40:29.529Z,101220.94
2023-05-20T21:43:14.847Z,101216.56
2023-05-20T21:46:00.381Z,101210.53
2023-05-20T21:48:45.526Z,101208.72
2023-05-20T21:51:30.883Z,101211.34
2023-05-20T21:54:16.246Z,101208.63
2023-05-20T21:57:01.595Z,101205.19
2023-05-20T21:59:47.019Z,101196.50
2023-05-20T22:02:32.338Z,101204.34
2023-05-20T22:05:17.823Z,101201.81
2023-05-20T22:08:02.914Z,101202.59
2023-05-20T22:10:48.412Z,101192.19
2023-05-20T22:13:34.876Z,101193.09
2023-05-20T22:16:20.450Z,101183.47
2023-05-20T22:19:05.880Z,101176.47
2023-05-20T22:21:51.348Z,101179.06
2023-05-20T22:24:36.577Z,101172.97
2023-05-20T22:27:22.111Z,101172.00
2023-05-20T22:30:08.066Z,101165.91
2023-05-20T22:32:53.315Z,101158.09
2023-05-20T22:35:39.160Z,101163.31
2023-05-20T22:38:24.134Z,101154.69
2023-05-20T22:41:10.414Z,101149.47
2023-05-20T22:43:56.090Z,101151.94
2023-05-20T22:46:41.360Z,101159.69
2023-05-20T22:49:26.789Z,101142.31
2023-05-20T22:52:12.239Z,101136.22
2023-05-20T22:55:00.564Z,101140.59
2023-05-20T22:57:45.910Z,101126.66
2023-05-20T23:00:31.271Z,101129.25
2023-05-20T23:03:16.814Z,101126.53
2023-05-20T23:06:02.279Z,101128.31
2023-05-20T23:08:47.433Z,101126.56
2023-05-20T23:11:32.848Z,101124.72
2023-05-20T23:14:18.632Z,101123.09
2023-05-20T23:17:03.887Z,101112.53
2023-05-20T23:19:48.850Z,101116.94
2023-05-20T23:22:34.213Z,101108.16
2023-05-20T23:25:19.798Z,101115.94
2023-05-20T23:28:05.319Z,101116.81
2023-05-20T23:30:50.627Z,101115.97
2023-05-20T23:33:35.595Z,101105.56
2023-05-20T23:36:21.171Z,101108.16
2023-05-20T23:39:06.516Z,101096.91
2023-05-20T23:41:51.502Z,101089.81
2023-05-20T23:44:36.880Z,101092.47
2023-05-20T23:47:22.456Z,101089.00
2023-05-20T23:50:07.919Z,101087.16
2023-05-20T23:52:53.394Z,101091.53
2023-05-20T23:55:39.036Z,101093.25
2023-05-20T23:58:24.527Z,101088.97
